createdAt,value
2024-02-06T00:00:59.142Z,96.70
2024-02-06T00:01:59.060Z,96.46
2024-02-06T00:02:58.911Z,96.55
2024-02-06T00:03:58.874Z,96.80
2024-02-06T00:05:00.135Z,96.80
2024-02-06T00:05:58.787Z,96.80
2024-02-06T00:06:58.780Z,96.89
2024-02-06T00:07:58.757Z,96.98
2024-02-06T00:08:58.570Z,97.27
2024-02-06T00:09:58.521Z,97.46
2024-02-06T00:10:58.525Z,97.22
2024-02-06T00:11:58.381Z,97.08
2024-02-06T00:12:58.334Z,97.03
2024-02-06T00:13:58.268Z,97.13
2024-02-06T00:14:58.206Z,97.41
2024-02-06T00:15:58.185Z,97.46
2024-02-06T00:16:58.090Z,97.17
2024-02-06T00:17:58.133Z,97.17
2024-02-06T00:18:58.041Z,97.17
2024-02-06T00:19:58.023Z,97.13
2024-02-06T00:20:57.861Z,97.03
2024-02-06T00:21:57.831Z,97.03
2024-02-06T00:22:57.837Z,97.03
2024-02-06T00:23:57.680Z,96.84
2024-02-06T00:24:57.703Z,97.08
2024-02-06T00:25:57.557Z,97.60
2024-02-06T00:26:57.500Z,97.03
2024-02-06T00:27:57.475Z,97.13
2024-02-06T00:28:57.392Z,97.36
2024-02-06T00:29:57.321Z,97.41
2024-02-06T00:30:57.271Z,97.41
2024-02-06T00:31:57.225Z,97.22
2024-02-06T00:32:57.243Z,97.31
2024-02-06T00:33:57.284Z,97.31
2024-02-06T00:34:57.039Z,97.22
2024-02-06T00:35:56.985Z,97.70
2024-02-06T00:36:56.983Z,97.13
2024-02-06T00:37:56.849Z,97.22
2024-02-06T00:38:56.804Z,97.17
2024-02-06T00:39:56.772Z,98.13
2024-02-06T00:40:56.674Z,97.31
2024-02-06T00:41:56.621Z,98.18
2024-02-06T00:42:56.565Z,97.79
2024-02-06T00:43:56.513Z,97.99
2024-02-06T00:44:56.453Z,98.08
2024-02-06T00:45:56.391Z,97.89
2024-02-06T00:46:56.320Z,98.08
2024-02-06T00:47:56.395Z,97.79
2024-02-06T00:48:56.375Z,97.70
2024-02-06T00:49:56.250Z,97.70
2024-02-06T00:50:56.131Z,97.99
2024-02-06T00:51:56.045Z,97.79
2024-02-06T00:52:55.972Z,98.08
2024-02-06T00:53:55.914Z,98.08
2024-02-06T00:54:55.896Z,98.08
2024-02-06T00:55:55.792Z,97.70
2024-02-06T00:56:55.732Z,97.60
2024-02-06T00:57:55.694Z,97.89
2024-02-06T00:58:55.615Z,97.75
2024-02-06T00:59:55.556Z,97.79
2024-02-06T01:00:55.596Z,97.51
2024-02-06T01:01:55.491Z,97.79
2024-02-06T01:02:55.379Z,97.51
2024-02-06T01:03:55.417Z,98.08
2024-02-06T01:04:55.302Z,98.08
2024-02-06T01:05:55.201Z,98.08
2024-02-06T01:06:55.198Z,97.70
2024-02-06T01:07:55.155Z,98.08
2024-02-06T01:08:55.020Z,98.08
2024-02-06T01:09:55.003Z,98.08
2024-02-06T01:10:54.917Z,98.08
2024-02-06T01:11:54.845Z,97.79
2024-02-06T01:12:57.642Z,97.70
2024-02-06T01:13:54.731Z,98.08
2024-02-06T01:14:54.674Z,97.70
2024-02-06T01:15:54.649Z,97.79
2024-02-06T01:16:54.559Z,97.99
2024-02-06T01:17:54.525Z,97.79
2024-02-06T01:18:54.501Z,97.79
2024-02-06T01:19:54.500Z,97.99
2024-02-06T01:20:54.344Z,97.99
2024-02-06T01:21:54.274Z,98.18
2024-02-06T01:22:54.197Z,97.79
2024-02-06T01:24:01.137Z,97.89
2024-02-06T01:25:04.782Z,98.27
2024-02-06T01:25:54.088Z,97.89
2024-02-06T01:26:53.972Z,98.36
2024-02-06T01:27:53.947Z,98.27
2024-02-06T01:28:53.843Z,97.79
2024-02-06T01:29:53.786Z,97.99
2024-02-06T01:30:53.757Z,98.84
2024-02-06T01:31:53.665Z,98.18
2024-02-06T01:32:53.714Z,98.18
2024-02-06T01:33:53.659Z,97.99
2024-02-06T01:34:53.581Z,97.89
2024-02-06T01:35:53.442Z,98.18
2024-02-06T01:36:53.407Z,97.99
2024-02-06T01:37:53.313Z,98.84
2024-02-06T01:38:53.251Z,98.74
2024-02-06T01:39:53.247Z,97.99
2024-02-06T01:40:53.137Z,97.89
2024-02-06T01:41:53.071Z,98.84
2024-02-06T01:42:53.080Z,98.65
2024-02-06T01:43:52.966Z,98.84
2024-02-06T01:44:52.903Z,98.74
2024-02-06T01:45:52.872Z,97.99
2024-02-06T01:46:52.783Z,98.74
2024-02-06T01:47:52.755Z,98.65
2024-02-06T01:48:52.728Z,98.46
2024-02-06T01:49:52.673Z,98.55
2024-02-06T01:50:52.547Z,98.74
2024-02-06T01:51:52.551Z,98.46
2024-02-06T01:52:52.426Z,98.55
2024-02-06T01:53:52.375Z,98.46
2024-02-06T01:54:52.338Z,98.65
2024-02-06T01:55:52.260Z,98.55
2024-02-06T01:56:52.190Z,98.55
2024-02-06T01:57:52.155Z,98.55
2024-02-06T01:58:52.079Z,98.65
2024-02-06T01:59:52.010Z,98.65
2024-02-06T02:00:52.144Z,98.65
2024-02-06T02:01:52.038Z,98.46
2024-02-06T02:02:51.849Z,98.46
2024-02-06T02:03:51.856Z,98.46
2024-02-06T02:04:51.970Z,98.46
2024-02-06T02:05:51.920Z,98.55
2024-02-06T02:06:51.959Z,98.65
2024-02-06T02:07:51.592Z,98.55
2024-02-06T02:08:51.493Z,98.46
2024-02-06T02:09:51.451Z,98.46
2024-02-06T02:10:51.359Z,98.36
2024-02-06T02:11:51.299Z,98.27
2024-02-06T02:12:51.311Z,98.36
2024-02-06T02:13:51.188Z,98.46
2024-02-06T02:14:51.135Z,98.46
2024-02-06T02:15:51.115Z,98.46
2024-02-06T02:16:51.016Z,98.46
2024-02-06T02:17:50.977Z,98.46
2024-02-06T02:18:50.952Z,98.27
2024-02-06T02:19:50.864Z,98.27
2024-02-06T02:20:50.769Z,98.27
2024-02-06T02:21:50.723Z,98.27
2024-02-06T02:22:50.652Z,98.18
2024-02-06T02:23:52.549Z,98.27
2024-02-06T02:24:50.534Z,98.27
2024-02-06T02:25:50.486Z,98.27
2024-02-06T02:26:50.415Z,98.27
2024-02-06T02:27:50.354Z,98.46
2024-02-06T02:28:50.297Z,98.18
2024-02-06T02:29:50.240Z,98.46
2024-02-06T02:30:50.225Z,98.65
2024-02-06T02:31:50.117Z,98.65
2024-02-06T02:32:50.102Z,98.27
2024-02-06T02:33:50.276Z,98.36
2024-02-06T02:34:50.154Z,98.36
2024-02-06T02:35:49.886Z,98.36
2024-02-06T02:36:49.839Z,98.36
2024-02-06T02:37:49.788Z,98.36
2024-02-06T02:38:49.706Z,98.55
2024-02-06T02:39:50.762Z,98.36
2024-02-06T02:40:49.593Z,98.27
2024-02-06T02:41:49.536Z,98.36
2024-02-06T02:42:49.474Z,98.18
2024-02-06T02:43:49.410Z,98.36
2024-02-06T02:44:49.349Z,97.99
2024-02-06T02:45:49.294Z,98.36
2024-02-06T02:46:49.242Z,98.27
2024-02-06T02:47:49.209Z,98.55
2024-02-06T02:48:49.161Z,98.36
2024-02-06T02:49:49.111Z,98.27
2024-02-06T02:50:48.997Z,98.18
2024-02-06T02:51:48.936Z,97.99
2024-02-06T02:52:48.928Z,98.18
2024-02-06T02:53:48.817Z,98.74
2024-02-06T02:54:48.765Z,98.36
2024-02-06T02:55:48.698Z,98.18
2024-02-06T02:56:48.645Z,98.18
2024-02-06T02:57:48.579Z,98.18
2024-02-06T02:58:48.591Z,98.36
2024-02-06T02:59:48.473Z,98.08
2024-02-06T03:00:48.508Z,98.27
2024-02-06T03:01:48.416Z,98.18
2024-02-06T03:02:48.302Z,98.36
2024-02-06T03:03:48.253Z,98.27
2024-02-06T03:04:48.256Z,98.08
2024-02-06T03:05:48.182Z,98.27
2024-02-06T03:06:48.054Z,97.99
2024-02-06T03:07:47.999Z,97.99
2024-02-06T03:08:47.954Z,98.27
2024-02-06T03:09:47.871Z,98.46
2024-02-06T03:10:47.866Z,98.18
2024-02-06T03:11:47.762Z,98.18
2024-02-06T03:12:47.702Z,98.18
2024-02-06T03:13:47.638Z,98.27
2024-02-06T03:14:47.579Z,98.36
2024-02-06T03:15:47.515Z,98.55
2024-02-06T03:16:47.461Z,98.65
2024-02-06T03:17:47.422Z,98.36
2024-02-06T03:18:47.381Z,98.36
2024-02-06T03:19:47.340Z,98.74
2024-02-06T03:20:47.259Z,98.36
2024-02-06T03:21:47.159Z,98.36
2024-02-06T03:22:47.103Z,98.74
2024-02-06T03:23:47.043Z,98.65
2024-02-06T03:24:46.985Z,98.27
2024-02-06T03:25:47.001Z,98.74
2024-02-06T03:26:46.871Z,98.74
2024-02-06T03:27:47.387Z,98.84
2024-02-06T03:28:46.820Z,98.55
2024-02-06T03:29:46.707Z,98.18
2024-02-06T03:30:46.630Z,98.08
2024-02-06T03:31:47.177Z,98.27
2024-02-06T03:32:46.524Z,98.55
2024-02-06T03:33:46.591Z,98.74
2024-02-06T03:34:46.509Z,98.65
2024-02-06T03:35:46.336Z,98.74
2024-02-06T03:36:46.280Z,98.65
2024-02-06T03:37:46.281Z,98.65
2024-02-06T03:38:46.154Z,98.74
2024-02-06T03:39:46.093Z,98.46
2024-02-06T03:40:46.051Z,98.74
2024-02-06T03:41:52.657Z,98.36
2024-02-06T03:42:45.926Z,98.65
2024-02-06T03:43:45.922Z,98.74
2024-02-06T03:44:45.802Z,98.65
2024-02-06T03:45:45.747Z,98.65
2024-02-06T03:46:45.696Z,98.65
2024-02-06T03:47:45.775Z,98.65
2024-02-06T03:48:45.599Z,98.84
2024-02-06T03:49:45.587Z,98.65
2024-02-06T03:50:45.458Z,98.84
2024-02-06T03:51:45.384Z,98.65
2024-02-06T03:52:45.379Z,98.36
2024-02-06T03:53:45.264Z,98.74
2024-02-06T03:54:45.207Z,98.84
2024-02-06T03:55:45.217Z,98.36
2024-02-06T03:56:45.090Z,98.65
2024-02-06T03:57:45.032Z,98.65
2024-02-06T03:58:45.021Z,98.65
2024-02-06T03:59:44.935Z,98.36
2024-02-06T04:00:44.873Z,98.74
2024-02-06T04:01:44.855Z,98.36
2024-02-06T04:02:44.783Z,98.74
2024-02-06T04:03:44.675Z,98.74
2024-02-06T04:04:44.941Z,98.74
2024-02-06T04:05:44.575Z,98.36
2024-02-06T04:06:44.576Z,98.46
2024-02-06T04:07:44.477Z,98.36
2024-02-06T04:08:44.381Z,98.36
2024-02-06T04:09:44.366Z,98.36
2024-02-06T04:10:44.342Z,98.74
2024-02-06T04:11:44.202Z,98.74
2024-02-06T04:12:44.146Z,98.65
2024-02-06T04:13:44.108Z,98.65
2024-02-06T04:14:44.031Z,98.74
2024-02-06T04:15:44.014Z,98.74
2024-02-06T04:16:43.948Z,98.36
2024-02-06T04:17:43.861Z,98.65
2024-02-06T04:18:43.911Z,98.36
2024-02-06T04:19:43.805Z,98.65
2024-02-06T04:20:43.684Z,98.36
2024-02-06T04:21:43.608Z,98.74
2024-02-06T04:22:43.637Z,98.27
2024-02-06T04:23:43.486Z,98.74
2024-02-06T04:24:43.436Z,98.74
2024-02-06T04:25:43.401Z,98.18
2024-02-06T04:26:43.313Z,98.18
2024-02-06T04:27:43.252Z,98.74
2024-02-06T04:28:43.273Z,98.18
2024-02-06T04:29:43.175Z,98.18
2024-02-06T04:30:43.071Z,98.18
2024-02-06T04:31:43.214Z,98.27
2024-02-06T04:32:43.122Z,97.99
2024-02-06T04:33:43.420Z,98.36
2024-02-06T04:34:42.889Z,98.55
2024-02-06T04:35:42.786Z,98.27
2024-02-06T04:36:42.718Z,98.36
2024-02-06T04:37:42.773Z,98.46
2024-02-06T04:38:42.611Z,98.18
2024-02-06T04:39:42.542Z,98.46
2024-02-06T04:40:42.536Z,98.27
2024-02-06T04:41:42.420Z,98.18
2024-02-06T04:42:42.364Z,97.99
2024-02-06T04:43:42.356Z,97.99
2024-02-06T04:44:42.245Z,98.46
2024-02-06T04:45:42.212Z,98.36
2024-02-06T04:46:42.215Z,98.27
2024-02-06T04:47:42.113Z,98.46
2024-02-06T04:48:42.018Z,98.27
2024-02-06T04:49:42.181Z,98.27
2024-02-06T04:50:41.889Z,98.36
2024-02-06T04:51:41.841Z,98.36
2024-02-06T04:52:42.258Z,98.36
2024-02-06T04:53:41.707Z,98.36
2024-02-06T04:54:41.662Z,98.46
2024-02-06T04:55:41.638Z,98.27
2024-02-06T04:56:41.544Z,98.36
2024-02-06T04:57:41.475Z,98.22
2024-02-06T04:58:41.438Z,98.36
2024-02-06T04:59:41.353Z,98.36
2024-02-06T05:00:41.377Z,98.36
2024-02-06T05:01:41.280Z,98.46
2024-02-06T05:02:41.181Z,98.32
2024-02-06T05:03:41.171Z,98.27
2024-02-06T05:04:41.186Z,98.36
2024-02-06T05:05:41.071Z,98.18
2024-02-06T05:06:41.002Z,98.65
2024-02-06T05:07:40.915Z,98.27
2024-02-06T05:08:40.871Z,98.36
2024-02-06T05:09:40.759Z,98.41
2024-02-06T05:10:40.890Z,98.32
2024-02-06T05:11:40.642Z,98.65
2024-02-06T05:12:40.586Z,98.69
2024-02-06T05:13:40.579Z,98.69
2024-02-06T05:14:40.475Z,98.41
2024-02-06T05:15:40.406Z,98.41
2024-02-06T05:16:40.376Z,98.18
2024-02-06T05:17:40.334Z,98.27
2024-02-06T05:18:40.292Z,98.32
2024-02-06T05:19:40.202Z,98.22
2024-02-06T05:20:40.116Z,98.18
2024-02-06T05:21:40.063Z,98.36
2024-02-06T05:22:40.127Z,98.46
2024-02-06T05:23:39.932Z,98.22
2024-02-06T05:24:39.875Z,98.32
2024-02-06T05:25:39.952Z,98.46
2024-02-06T05:26:39.767Z,98.60
2024-02-06T05:27:39.695Z,98.22
2024-02-06T05:28:39.664Z,98.22
2024-02-06T05:29:39.574Z,98.27
2024-02-06T05:30:39.512Z,98.27
2024-02-06T05:31:39.549Z,98.46
2024-02-06T05:32:39.401Z,98.50
2024-02-06T05:33:39.372Z,98.46
2024-02-06T05:34:39.480Z,98.41
2024-02-06T05:35:39.228Z,98.60
2024-02-06T05:36:39.156Z,97.99
2024-02-06T05:37:39.169Z,97.65
2024-02-06T05:38:39.042Z,97.93
2024-02-06T05:39:41.410Z,97.89
2024-02-06T05:40:39.046Z,98.60
2024-02-06T05:41:38.882Z,98.69
2024-02-06T05:42:38.807Z,97.93
2024-02-06T05:43:38.819Z,97.93
2024-02-06T05:44:38.681Z,98.60
2024-02-06T05:45:38.628Z,98.60
2024-02-06T05:46:38.593Z,98.41
2024-02-06T05:47:38.545Z,98.13
2024-02-06T05:48:40.578Z,98.50
2024-02-06T05:49:38.447Z,98.22
2024-02-06T05:50:38.389Z,98.22
2024-02-06T05:51:38.268Z,98.22
2024-02-06T05:52:38.490Z,98.41
2024-02-06T05:53:38.148Z,98.50
2024-02-06T05:54:38.086Z,98.60
2024-02-06T05:55:38.101Z,98.41
2024-02-06T05:56:37.971Z,98.22
2024-02-06T05:57:37.985Z,98.60
2024-02-06T05:58:37.994Z,98.13
2024-02-06T05:59:37.790Z,98.22
2024-02-06T06:00:37.734Z,98.22
2024-02-06T06:01:37.806Z,98.13
2024-02-06T06:02:37.629Z,98.60
2024-02-06T06:03:37.588Z,98.22
2024-02-06T06:04:37.684Z,98.22
2024-02-06T06:05:37.479Z,98.32
2024-02-06T06:06:37.447Z,98.32
2024-02-06T06:07:37.376Z,98.22
2024-02-06T06:08:37.273Z,98.22
2024-02-06T06:09:37.222Z,98.32
2024-02-06T06:10:38.768Z,98.32
2024-02-06T06:11:37.079Z,98.60
2024-02-06T06:12:43.721Z,98.60
2024-02-06T06:13:37.059Z,98.32
2024-02-06T06:14:36.952Z,98.41
2024-02-06T06:15:36.847Z,98.32
2024-02-06T06:16:36.900Z,98.22
2024-02-06T06:17:36.750Z,98.32
2024-02-06T06:18:36.754Z,98.50
2024-02-06T06:19:36.762Z,98.41
2024-02-06T06:20:36.566Z,98.32
2024-02-06T06:21:36.668Z,98.22
2024-02-06T06:22:36.525Z,98.22
2024-02-06T06:23:36.365Z,98.22
2024-02-06T06:24:36.366Z,98.32
2024-02-06T06:25:36.274Z,98.41
2024-02-06T06:26:36.188Z,98.13
2024-02-06T06:27:36.127Z,98.22
2024-02-06T06:28:36.122Z,98.22
2024-02-06T06:29:36.017Z,98.32
2024-02-06T06:30:35.960Z,98.50
2024-02-06T06:31:35.920Z,98.41
2024-02-06T06:32:35.861Z,98.69
2024-02-06T06:33:35.780Z,97.93
2024-02-06T06:34:35.760Z,98.13
2024-02-06T06:35:35.653Z,97.93
2024-02-06T06:36:35.597Z,97.65
2024-02-06T06:37:38.986Z,97.74
2024-02-06T06:38:35.469Z,98.60
2024-02-06T06:39:35.416Z,98.60
2024-02-06T06:40:35.380Z,98.41
2024-02-06T06:41:35.322Z,97.93
2024-02-06T06:42:35.234Z,97.74
2024-02-06T06:43:35.267Z,97.65
2024-02-06T06:44:35.129Z,97.65
2024-02-06T06:45:35.133Z,97.55
2024-02-06T06:46:35.101Z,97.84
2024-02-06T06:47:34.976Z,97.74
2024-02-06T06:48:34.979Z,97.65
2024-02-06T06:49:34.915Z,98.13
2024-02-06T06:50:34.755Z,97.84
2024-02-06T06:51:34.703Z,98.22
2024-02-06T06:52:34.701Z,97.84
2024-02-06T06:53:34.595Z,97.74
2024-02-06T06:54:34.523Z,97.65
2024-02-06T06:55:34.493Z,97.74
2024-02-06T06:56:34.413Z,98.60
2024-02-06T06:57:34.340Z,98.79
2024-02-06T06:58:34.333Z,98.41
2024-02-06T06:59:34.235Z,97.93
2024-02-06T07:00:34.186Z,98.22
2024-02-06T07:02:01.804Z,97.93
2024-02-06T07:02:34.106Z,97.74
2024-02-06T07:03:34.067Z,97.65
2024-02-06T07:04:34.027Z,97.65
2024-02-06T07:05:33.923Z,98.03
2024-02-06T07:06:38.382Z,98.03
2024-02-06T07:07:33.793Z,97.84
2024-02-06T07:08:33.693Z,97.84
2024-02-06T07:09:33.628Z,97.84
2024-02-06T07:10:33.637Z,98.03
2024-02-06T07:11:33.510Z,97.93
2024-02-06T07:12:33.463Z,97.84
2024-02-06T07:13:33.425Z,97.65
2024-02-06T07:14:33.333Z,97.74
2024-02-06T07:15:33.293Z,98.03
2024-02-06T07:16:33.271Z,97.74
2024-02-06T07:17:33.314Z,97.74
2024-02-06T07:18:33.245Z,98.03
2024-02-06T07:19:33.179Z,97.46
2024-02-06T07:20:33.125Z,97.55
2024-02-06T07:21:33.049Z,98.03
2024-02-06T07:22:32.874Z,98.03
2024-02-06T07:23:33.716Z,98.03
2024-02-06T07:24:32.765Z,98.03
2024-02-06T07:25:32.783Z,97.65
2024-02-06T07:26:32.618Z,97.84
2024-02-06T07:27:32.588Z,97.74
2024-02-06T07:28:32.629Z,97.65
2024-02-06T07:29:32.463Z,97.93
2024-02-06T07:30:39.466Z,97.65
2024-02-06T07:31:32.466Z,98.22
2024-02-06T07:32:32.305Z,97.65
2024-02-06T07:33:32.334Z,97.84
2024-02-06T07:34:32.201Z,97.65
2024-02-06T07:35:32.081Z,97.27
2024-02-06T07:36:32.024Z,97.36
2024-02-06T07:37:31.976Z,97.17
2024-02-06T07:38:31.911Z,97.08
2024-02-06T07:39:31.845Z,96.79
2024-02-06T07:40:31.818Z,96.89
2024-02-06T07:41:31.734Z,97.17
2024-02-06T07:42:31.682Z,97.55
2024-02-06T07:43:31.626Z,96.98
2024-02-06T07:44:31.570Z,96.98
2024-02-06T07:45:31.488Z,96.89
2024-02-06T07:46:31.493Z,97.27
2024-02-06T07:47:31.391Z,96.89
2024-02-06T07:48:31.361Z,96.98
2024-02-06T07:49:31.326Z,96.89
2024-02-06T07:50:31.197Z,96.98
2024-02-06T07:51:31.141Z,96.89
2024-02-06T07:52:31.128Z,97.08
2024-02-06T07:53:31.009Z,97.08
2024-02-06T07:54:30.955Z,96.98
2024-02-06T07:55:30.950Z,96.98
2024-02-06T07:56:32.793Z,97.36
2024-02-06T07:57:30.776Z,96.79
2024-02-06T07:58:30.725Z,97.08
2024-02-06T07:59:30.673Z,96.89
2024-02-06T08:00:30.613Z,96.89
2024-02-06T08:01:30.764Z,97.17
2024-02-06T08:02:30.480Z,97.55
2024-02-06T08:03:30.418Z,97.17
2024-02-06T08:04:30.415Z,97.27
2024-02-06T08:05:30.436Z,96.89
2024-02-06T08:06:30.316Z,96.98
2024-02-06T08:07:30.302Z,96.89
2024-02-06T08:08:30.160Z,97.08
2024-02-06T08:09:30.057Z,97.08
2024-02-06T08:10:30.029Z,97.36
2024-02-06T08:11:29.945Z,97.55
2024-02-06T08:12:29.878Z,97.27
2024-02-06T08:13:29.881Z,97.27
2024-02-06T08:14:29.763Z,98.03
2024-02-06T08:15:29.698Z,97.46
2024-02-06T08:16:29.677Z,97.27
2024-02-06T08:17:50.643Z,97.46
2024-02-06T08:18:29.681Z,97.36
2024-02-06T08:19:29.528Z,97.36
2024-02-06T08:20:29.439Z,97.17
2024-02-06T08:21:29.354Z,96.98
2024-02-06T08:22:29.292Z,97.36
2024-02-06T08:23:29.233Z,97.08
2024-02-06T08:24:29.291Z,96.89
2024-02-06T08:25:30.206Z,97.08
2024-02-06T08:26:29.042Z,97.27
2024-02-06T08:27:28.991Z,97.08
2024-02-06T08:28:28.967Z,97.36
2024-02-06T08:29:28.868Z,96.89
2024-02-06T08:30:28.812Z,97.08
2024-02-06T08:31:28.825Z,97.17
2024-02-06T08:32:28.716Z,97.08
2024-02-06T08:33:29.248Z,96.31
2024-02-06T08:34:28.593Z,96.79
2024-02-06T08:35:28.572Z,96.31
2024-02-06T08:36:28.805Z,96.41
2024-02-06T08:37:28.476Z,96.51
2024-02-06T08:38:28.420Z,96.31
2024-02-06T08:40:59.919Z,96.70
2024-02-06T08:42:00.209Z,96.60
2024-02-06T08:43:56.339Z,96.79
2024-02-06T08:44:52.583Z,96.70
2024-02-06T08:46:45.965Z,96.79
2024-02-06T08:47:45.938Z,96.70
2024-02-06T08:48:45.893Z,96.79
2024-02-06T08:49:45.809Z,96.79
2024-02-06T08:50:45.730Z,96.70
2024-02-06T08:51:45.638Z,96.51
2024-02-06T08:52:45.665Z,96.89
2024-02-06T08:53:45.521Z,96.70
2024-02-06T08:55:00.004Z,96.70
2024-02-06T08:55:45.536Z,96.60
2024-02-06T08:56:45.336Z,96.51
2024-02-06T08:57:45.281Z,96.51
2024-02-06T08:58:45.277Z,96.51
2024-02-06T08:59:45.185Z,96.79
2024-02-06T09:00:45.138Z,96.70
2024-02-06T09:01:45.129Z,96.79
2024-02-06T09:02:44.981Z,96.51
2024-02-06T09:03:44.985Z,96.79
2024-02-06T09:04:44.958Z,96.70
2024-02-06T09:05:45.422Z,96.31
2024-02-06T09:06:44.773Z,96.60
2024-02-06T09:07:44.712Z,96.70
2024-02-06T09:08:44.654Z,96.51
2024-02-06T09:09:44.564Z,96.70
2024-02-06T09:10:44.557Z,96.70
2024-02-06T09:11:44.447Z,96.51
2024-02-06T09:12:44.389Z,96.51
2024-02-06T09:13:44.370Z,96.51
2024-02-06T09:14:44.490Z,96.51
2024-02-06T09:15:44.209Z,96.12
2024-02-06T09:16:44.163Z,96.22
2024-02-06T09:17:44.166Z,96.70
2024-02-06T09:18:44.049Z,96.51
2024-02-06T09:19:44.065Z,96.22
2024-02-06T09:20:44.081Z,96.51
2024-02-06T09:21:43.850Z,96.51
2024-02-06T09:22:43.883Z,96.51
2024-02-06T09:23:43.729Z,96.51
2024-02-06T09:24:43.671Z,96.89
2024-02-06T09:25:50.554Z,96.31
2024-02-06T09:26:43.548Z,96.51
2024-02-06T09:27:45.942Z,96.79
2024-02-06T09:28:43.460Z,96.70
2024-02-06T09:29:43.375Z,96.70
2024-02-06T09:30:43.344Z,96.51
2024-02-06T09:31:43.476Z,96.70
2024-02-06T09:32:43.230Z,96.31
2024-02-06T09:33:43.396Z,96.31
2024-02-06T09:34:43.334Z,96.79
2024-02-06T09:35:43.066Z,96.70
2024-02-06T09:36:42.952Z,96.51
2024-02-06T09:37:42.961Z,96.31
2024-02-06T09:38:42.840Z,96.31
2024-02-06T09:39:42.780Z,96.70
2024-02-06T09:40:44.234Z,96.41
2024-02-06T09:41:42.656Z,96.51
2024-02-06T09:42:42.593Z,96.70
2024-02-06T09:43:42.584Z,96.89
2024-02-06T09:44:42.474Z,96.70
2024-02-06T09:45:42.418Z,96.79
2024-02-06T09:46:42.390Z,96.79
2024-02-06T09:47:42.331Z,97.08
2024-02-06T09:48:42.265Z,96.79
2024-02-06T09:49:42.201Z,96.98
2024-02-06T09:50:42.125Z,97.17
2024-02-06T09:51:42.058Z,96.51
2024-02-06T09:52:42.062Z,97.27
2024-02-06T09:53:41.948Z,97.08
2024-02-06T09:54:41.878Z,97.17
2024-02-06T09:55:41.951Z,97.08
2024-02-06T09:56:41.772Z,97.46
2024-02-06T09:57:42.818Z,97.08
2024-02-06T09:58:41.693Z,97.27
2024-02-06T09:59:41.580Z,97.27
2024-02-06T10:00:41.530Z,97.27
2024-02-06T10:01:41.552Z,97.36
2024-02-06T10:02:41.397Z,97.27
2024-02-06T10:03:41.364Z,97.08
2024-02-06T10:04:41.350Z,97.27
2024-02-06T10:05:41.297Z,96.98
2024-02-06T10:06:41.219Z,97.27
2024-02-06T10:07:41.161Z,96.98
2024-02-06T10:08:41.041Z,97.08
2024-02-06T10:09:40.993Z,97.17
2024-02-06T10:10:40.944Z,97.36
2024-02-06T10:11:40.875Z,97.36
2024-02-06T10:12:40.817Z,97.27
2024-02-06T10:13:40.767Z,97.17
2024-02-06T10:14:40.701Z,97.17
2024-02-06T10:15:40.641Z,97.17
2024-02-06T10:16:40.622Z,97.17
2024-02-06T10:17:40.533Z,97.27
2024-02-06T10:18:40.450Z,96.89
2024-02-06T10:19:40.533Z,97.08
2024-02-06T10:20:40.325Z,96.89
2024-02-06T10:21:40.289Z,97.08
2024-02-06T10:22:41.123Z,96.79
2024-02-06T10:23:40.157Z,97.08
2024-02-06T10:24:40.102Z,97.08
2024-02-06T10:25:40.053Z,96.89
2024-02-06T10:26:40.036Z,97.08
2024-02-06T10:27:39.923Z,96.98
2024-02-06T10:28:39.950Z,96.79
2024-02-06T10:29:39.839Z,97.08
2024-02-06T10:30:39.729Z,97.08
2024-02-06T10:31:40.160Z,96.89
2024-02-06T10:32:39.659Z,97.08
2024-02-06T10:33:40.897Z,96.98
2024-02-06T10:34:39.532Z,96.98
2024-02-06T10:35:39.619Z,96.98
2024-02-06T10:36:39.387Z,96.98
2024-02-06T10:37:39.400Z,96.98
2024-02-06T10:38:39.252Z,96.89
2024-02-06T10:39:39.194Z,96.98
2024-02-06T10:40:39.157Z,96.89
2024-02-06T10:41:59.814Z,96.98
2024-02-06T10:43:09.713Z,97.08
2024-02-06T10:43:45.994Z,96.98
2024-02-06T10:44:38.926Z,96.98
2024-02-06T10:45:38.858Z,97.55
2024-02-06T10:46:38.801Z,96.98
2024-02-06T10:47:39.432Z,97.17
2024-02-06T10:48:38.723Z,96.70
2024-02-06T10:49:38.791Z,97.36
2024-02-06T10:50:38.665Z,97.36
2024-02-06T10:51:38.543Z,97.46
2024-02-06T10:52:38.481Z,96.98
2024-02-06T10:53:38.363Z,97.08
2024-02-06T10:54:38.320Z,97.27
2024-02-06T10:55:38.270Z,97.17
2024-02-06T10:56:38.184Z,97.08
2024-02-06T10:57:38.138Z,98.03
2024-02-06T10:58:38.112Z,97.84
2024-02-06T10:59:38.002Z,97.65
2024-02-06T11:00:38.244Z,98.13
2024-02-06T11:01:38.041Z,97.74
2024-02-06T11:02:37.820Z,97.65
2024-02-06T11:03:37.771Z,97.74
2024-02-06T11:04:37.808Z,97.84
2024-02-06T11:05:37.723Z,97.84
2024-02-06T11:06:37.605Z,97.93
2024-02-06T11:07:37.610Z,97.65
2024-02-06T11:08:37.461Z,97.65
2024-02-06T11:09:37.406Z,97.93
2024-02-06T11:10:37.501Z,97.74
2024-02-06T11:11:37.285Z,98.22
2024-02-06T11:12:38.024Z,97.65
2024-02-06T11:13:37.184Z,97.65
2024-02-06T11:14:37.105Z,97.74
2024-02-06T11:15:37.078Z,97.93
2024-02-06T11:16:37.051Z,98.03
2024-02-06T11:17:36.978Z,97.74
2024-02-06T11:18:36.886Z,97.74
2024-02-06T11:19:37.013Z,98.03
2024-02-06T11:20:36.752Z,98.03
2024-02-06T11:21:36.693Z,98.03
2024-02-06T11:22:36.768Z,97.55
2024-02-06T11:23:36.593Z,97.65
2024-02-06T11:24:36.513Z,97.65
2024-02-06T11:25:36.464Z,97.74
2024-02-06T11:26:36.390Z,97.55
2024-02-06T11:27:36.339Z,97.74
2024-02-06T11:28:36.341Z,97.74
2024-02-06T11:29:36.215Z,97.84
2024-02-06T11:30:36.153Z,97.84
2024-02-06T11:31:36.136Z,97.46
2024-02-06T11:32:36.056Z,97.55
2024-02-06T11:33:38.224Z,97.65
2024-02-06T11:34:36.020Z,97.46
2024-02-06T11:35:35.856Z,97.84
2024-02-06T11:36:35.793Z,97.74
2024-02-06T11:37:35.807Z,97.74
2024-02-06T11:38:35.676Z,97.74
2024-02-06T11:39:35.627Z,97.84
2024-02-06T11:40:35.592Z,97.46
2024-02-06T11:41:35.502Z,97.55
2024-02-06T11:42:35.451Z,97.55
2024-02-06T11:43:35.429Z,97.74
2024-02-06T11:44:35.343Z,97.84
2024-02-06T11:45:35.272Z,97.84
2024-02-06T11:46:35.253Z,97.84
2024-02-06T11:47:35.172Z,97.84
2024-02-06T11:48:35.148Z,97.55
2024-02-06T11:49:35.679Z,97.93
2024-02-06T11:50:36.602Z,98.03
2024-02-06T11:51:34.904Z,97.84
2024-02-06T11:52:34.864Z,97.84
2024-02-06T11:53:34.797Z,97.84
2024-02-06T11:54:34.719Z,97.84
2024-02-06T11:55:37.068Z,98.03
2024-02-06T11:56:34.603Z,97.84
2024-02-06T11:57:34.603Z,98.03
2024-02-06T11:58:34.531Z,98.03
2024-02-06T11:59:34.448Z,98.03
2024-02-06T12:00:34.368Z,97.84
2024-02-06T12:01:36.517Z,98.03
2024-02-06T12:02:34.309Z,97.65
2024-02-06T12:03:34.184Z,97.84
2024-02-06T12:04:34.178Z,97.93
2024-02-06T12:05:34.162Z,97.84
2024-02-06T12:06:34.142Z,98.03
2024-02-06T12:07:34.108Z,97.93
2024-02-06T12:08:34.390Z,97.74
2024-02-06T12:09:33.840Z,97.74
2024-02-06T12:10:33.815Z,97.74
2024-02-06T12:11:33.728Z,97.74
2024-02-06T12:12:33.660Z,97.74
2024-02-06T12:13:33.944Z,97.74
2024-02-06T12:14:33.533Z,97.74
2024-02-06T12:15:33.506Z,97.74
2024-02-06T12:16:33.472Z,98.03
2024-02-06T12:17:33.393Z,98.22
2024-02-06T12:18:33.426Z,98.03
2024-02-06T12:19:33.336Z,98.22
2024-02-06T12:20:33.315Z,97.74
2024-02-06T12:21:33.118Z,97.84
2024-02-06T12:22:34.068Z,97.84
2024-02-06T12:23:32.995Z,98.13
2024-02-06T12:24:32.949Z,97.74
2024-02-06T12:25:32.952Z,98.60
2024-02-06T12:26:32.817Z,97.93
2024-02-06T12:27:32.762Z,97.93
2024-02-06T12:28:32.777Z,98.69
2024-02-06T12:29:32.649Z,97.93
2024-02-06T12:30:32.576Z,98.69
2024-02-06T12:31:32.554Z,98.69
2024-02-06T12:32:32.492Z,98.69
2024-02-06T12:33:32.519Z,97.93
2024-02-06T12:34:32.411Z,98.69
2024-02-06T12:35:32.300Z,98.79
2024-02-06T12:36:39.466Z,98.50
2024-02-06T12:37:32.197Z,98.69
2024-02-06T12:38:32.145Z,97.93
2024-02-06T12:39:32.069Z,98.50
2024-02-06T12:40:32.888Z,98.69
2024-02-06T12:41:31.922Z,98.41
2024-02-06T12:42:31.865Z,98.60
2024-02-06T12:43:31.823Z,98.50
2024-02-06T12:45:31.691Z,98.32
2024-02-06T12:46:31.674Z,98.41
2024-02-06T12:47:31.588Z,98.50
2024-02-06T12:50:06.456Z,98.50
2024-02-06T12:51:03.129Z,98.60
2024-02-06T12:52:56.411Z,98.32
2024-02-06T12:53:56.323Z,98.32
2024-02-06T12:54:56.279Z,98.22
2024-02-06T12:55:56.328Z,98.32
2024-02-06T12:56:57.170Z,98.41
2024-02-06T12:57:56.084Z,98.32
2024-02-06T12:58:56.058Z,98.41